Elkhart, Iowa
Current Conditions -  °F | °C
As of 2:55 PM on Tuesday 25 Nov 2014 (Local Time) from KIKV Reporting Station
Clear Clear  
Wind Chill: 32°   Ceiling: Unl
Heat Index: 36°   Visibility: 10mi
Dew Point:   Wind: 5mph
Humidity: 30%   Direction: 200°SSW
Pressure: 30.08"   Gusts: NA
Location:  41.79°N, 93.52°W
Report Text: KIKV 252055Z AUTO 20004KT 10SM CLR 02/M14 A3008 RMK AO2
Loading
Personal Weather Stations






























Interactive Weather Map New forecast layout! Learn more

10-Day Weather Forecast

Advertisements
Track Severe Weather on mobile